King of Scandinavia — OVOL2 — position and weather

sailwx.info

Track history (hours):
 
Tides and Currents Weather Stations Pressure Air Temp Water Temp Dewpoint Dewpoint Depression Visibility Wind Speed Wind Dir Waves Ship Positions

King of Scandinavia

Ship's website: http://www.dfds.co.uk/DSW/EN/OnBoard/na/KING.htm

Last reported at 2017-Mar-30 12:32 UTC. Time now 2017-Mar-30 12:39 UTC.
Position N 52°28' E 004°35'.

Length 166 m; beam 27.6 m; draft 6.2 m.

Type: Ship. MMSI: 220449000.

Date/timePositionNaut miles runAvg speedWind from/ knotsBaromVisibWave heightAir tempDewpointWater temp
2017-Mar-30 12:32N 52°28' E 004°35'0 0.0
2017-Mar-30 11:32N 52°28' E 004°35'0 0.0
2017-Mar-30 10:32N 52°28' E 004°35'0 0.0
2017-Mar-30 09:32N 52°28' E 004°35'0 0.0
2017-Mar-30 08:32N 52°28' E 004°35'2 2.0
2017-Mar-30 07:34N 52°28' E 004°32'1817.6
2017-Mar-30 06:33N 52°39' E 004°09'16716.7
2017-Mar-29 20:33N 54°21' E 000°27'1717.2
2017-Mar-29 19:33N 54°30' E 000°02'1817.9
2017-Mar-29 18:33N 54°39' W 000°24'3818.4
2017-Mar-29 16:31N 54°59' W 001°19'5 4.7
2017-Mar-29 15:32N 54°59' W 001°27'0 0.0
2017-Mar-29 14:20N 54°59' W 001°27'0 0.0
2017-Mar-29 09:23N 54°59' W 001°27'0 0.0
2017-Mar-29 08:15N 54°59' W 001°27'3 4.9
2017-Mar-29 07:33N 55°01' W 001°22'3917.6
2017-Mar-29 05:19N 54°40' W 000°24'1113.9
2017-Mar-29 04:33N 54°34' W 000°09'1414.0
2017-Mar-29 03:33N 54°26' E 000°11'15216.6
2017-Mar-28 18:25N 52°56' E 003°38'1315.0
2017-Mar-28 17:31N 52°47' E 003°56'1515.4
2017-Mar-28 16:33N 52°38' E 004°15'1515.3
2017-Mar-28 15:34N 52°28' E 004°33'1 1.0
2017-Mar-28 14:32N 52°28' E 004°35'0 0.0
2017-Mar-28 13:32N 52°28' E 004°35'0 0.0
2017-Mar-28 12:32N 52°28' E 004°35'0 0.0
2017-Mar-28 11:32N 52°28' E 004°35'0 0.0
2017-Mar-28 10:32N 52°28' E 004°35'0 0.0
2017-Mar-28 09:32N 52°28' E 004°35'0 0.0
2017-Mar-28 08:32N 52°28' E 004°35'0 0.2
2017-Mar-28 07:33N 52°28' E 004°35'1211.7
2017-Mar-28 06:33N 52°35' E 004°19'1717.2
2017-Mar-28 05:33N 52°46' E 003°58'1919.0
2017-Mar-28 04:33N 52°58' E 003°34'2118.8
2017-Mar-28 03:25N 53°12' E 003°07'1817.8
2017-Mar-28 02:23N 53°24' E 002°43'8716.4
2017-Mar-27 21:05N 54°15' E 000°44'916.9
2017-Mar-27 20:33N 54°20' E 000°31'1717.1
2017-Mar-27 19:33N 54°29' E 000°06'1817.7
2017-Mar-27 18:33N 54°38' W 000°20'4018.2
2017-Mar-27 16:20N 54°59' W 001°20'4 5.5
2017-Mar-27 15:33N 54°59' W 001°27'0 0.0
2017-Mar-27 14:33N 54°59' W 001°27'0 0.0
2017-Mar-27 13:33N 54°59' W 001°27'0 0.0
2017-Mar-27 12:33N 54°59' W 001°27'0 0.0
2017-Mar-27 11:31N 54°59' W 001°27'0 0.0
2017-Mar-27 10:33N 54°59' W 001°27'0 0.0
2017-Mar-27 08:28N 54°59' W 001°27'4 4.1
2017-Mar-27 07:33N 55°01' W 001°21'1917.4
2017-Mar-27 06:27N 54°50' W 000°54'2017.6
2017-Mar-27 05:18N 54°38' W 000°24'1317.0
2017-Mar-27 04:33N 54°32' W 000°06'1716.9
2017-Mar-27 03:33N 54°23' E 000°19'11816.4
2017-Mar-26 20:22N 53°15' E 003°02'1614.8
2017-Mar-26 19:17N 53°05' E 003°22'1114.6
2017-Mar-26 18:33N 52°57' E 003°34'1514.9
2017-Mar-26 17:33N 52°48' E 003°54'1515.4
2017-Mar-26 16:33N 52°38' E 004°13'1515.4
2017-Mar-26 15:34N 52°28' E 004°33'1 1.4
2017-Mar-26 14:31N 52°28' E 004°35'0 0.0
2017-Mar-26 13:31N 52°28' E 004°35'0 0.0
2017-Mar-26 12:31N 52°28' E 004°35'0 0.0
2017-Mar-26 11:31N 52°28' E 004°35'0 0.0
2017-Mar-26 10:31N 52°28' E 004°35'0 0.0
2017-Mar-26 09:31N 52°28' E 004°35'0 0.0
2017-Mar-26 08:31N 52°28' E 004°35'9 9.5
2017-Mar-26 07:33N 52°32' E 004°22'1818.1
2017-Mar-26 06:33N 52°45' E 004°01'1918.5
2017-Mar-26 05:33N 52°57' E 003°37'2019.8
2017-Mar-26 04:33N 53°10' E 003°12'2019.6
2017-Mar-26 03:34N 53°22' E 002°47'2319.4
2017-Mar-26 02:24N 53°37' E 002°18'1517.5
2017-Mar-26 01:33N 53°46' E 001°59'1717.3
2017-Mar-26 00:34N 53°55' E 001°34'1717.1
2017-Mar-25 23:33N 54°05' E 001°10'1717.0
2017-Mar-25 22:33N 54°14' E 000°46'1717.0
2017-Mar-25 21:34N 54°23' E 000°21'1717.1
2017-Mar-25 20:34N 54°32' W 000°04'3617.1
2017-Mar-25 18:28N 54°51' W 000°57'1617.5
2017-Mar-25 17:33N 54°60' W 001°20'4 4.2
2017-Mar-25 16:33N 54°59' W 001°27'0 0.0
2017-Mar-25 14:19N 54°59' W 001°27'0 0.0
2017-Mar-25 09:19N 54°59' W 001°27'3 4.0
2017-Mar-25 08:34N 55°01' W 001°23'1515.1
2017-Mar-25 07:34N 54°53' W 000°60'2317.5
2017-Mar-25 06:15N 54°41' W 000°27'1218.2
2017-Mar-25 05:34N 54°34' W 000°08'1817.7
2017-Mar-25 04:34N 54°24' E 000°17'1717.1
2017-Mar-25 03:33N 54°15' E 000°42'1717.0
2017-Mar-25 02:33N 54°06' E 001°06'8216.3
2017-Mar-24 21:33N 53°17' E 002°57'3315.4
2017-Mar-24 19:25N 52°56' E 003°39'1315.1
2017-Mar-24 18:34N 52°48' E 003°56'1514.5
2017-Mar-24 17:33N 52°38' E 004°13'1514.7
2017-Mar-24 16:34N 52°28' E 004°31'2 2.4
2017-Mar-24 15:33N 52°28' E 004°35'0 0.0
2017-Mar-24 14:30N 52°28' E 004°35'0 0.0
2017-Mar-24 13:33N 52°28' E 004°35'0 0.0
2017-Mar-24 12:33N 52°28' E 004°35'0 0.0
2017-Mar-24 11:33N 52°28' E 004°35'0 0.0
2017-Mar-24 10:33N 52°28' E 004°35'0 0.0
2017-Mar-24 09:33N 52°28' E 004°35'0 0.0
2017-Mar-24 08:33N 52°28' E 004°35'1111.1
2017-Mar-24 07:34N 52°34' E 004°20'1716.5
2017-Mar-24 06:33N 52°44' E 003°59'15518.2
2017-Mar-23 22:04N 54°18' E 000°31'918.2
2017-Mar-23 21:34N 54°23' E 000°18'1818.1
2017-Mar-23 20:34N 54°33' W 000°08'4816.2
2017-Mar-23 17:34N 54°59' W 001°19'5 4.6
2017-Mar-23 16:33N 54°59' W 001°27'0 0.0
2017-Mar-23 15:34N 54°59' W 001°27'0 0.0
2017-Mar-23 14:33N 54°59' W 001°27'0 0.0
2017-Mar-23 13:29N 54°59' W 001°27'0 0.0
2017-Mar-23 12:33N 54°59' W 001°27'0 0.0
2017-Mar-23 11:32N 54°59' W 001°27'0 0.0
2017-Mar-23 10:34N 54°59' W 001°27'0 0.0
2017-Mar-23 09:33N 54°59' W 001°27'5 5.1
2017-Mar-23 08:34N 54°60' W 001°18'3514.8
2017-Mar-23 06:11N 54°41' W 000°26'1117.7
2017-Mar-23 05:33N 54°34' W 000°11'1818.0
2017-Mar-23 04:34N 54°25' E 000°15'16716.3
2017-Mar-22 18:18N 52°45' E 004°01'1115.1
2017-Mar-22 17:34N 52°37' E 004°14'1514.9
2017-Mar-22 16:33N 52°28' E 004°33'1 1.1
2017-Mar-22 15:31N 52°28' E 004°35'0 0.0
2017-Mar-22 14:31N 52°28' E 004°35'0 0.0
2017-Mar-22 13:31N 52°28' E 004°35'0 0.0
2017-Mar-22 12:31N 52°28' E 004°35'0 0.0
2017-Mar-22 11:31N 52°28' E 004°35'0 0.0
2017-Mar-22 10:31N 52°28' E 004°35'0 0.0
2017-Mar-22 09:31N 52°28' E 004°35'0 0.0
2017-Mar-22 08:33N 52°28' E 004°35'1111.1
2017-Mar-22 07:33N 52°34' E 004°20'1414.4
2017-Mar-22 06:33N 52°44' E 004°03'15917.7
2017-Mar-21 21:33N 54°19' E 000°29'1818.3
2017-Mar-21 20:33N 54°29' E 000°03'1818.3
2017-Mar-21 19:33N 54°39' W 000°24'3818.2
2017-Mar-21 17:29N 54°59' W 001°19'5 4.8
2017-Mar-21 16:32N 54°59' W 001°27'0 0.0
2017-Mar-21 15:14N 54°59' W 001°27'0 0.0
2017-Mar-21 14:31N 54°59' W 001°27'0 0.0
2017-Mar-21 13:33N 54°59' W 001°27'0 0.0
2017-Mar-21 10:17N 54°59' W 001°27'0 0.0
2017-Mar-21 09:28N 54°59' W 001°27'5 5.7
2017-Mar-21 08:33N 54°60' W 001°18'4016.9
2017-Mar-21 06:13N 54°38' W 000°20'1116.4
2017-Mar-21 05:33N 54°32' W 000°04'1716.7
2017-Mar-21 04:34N 54°24' E 000°20'14916.6
2017-Mar-20 19:33N 52°55' E 003°42'1717.1
2017-Mar-20 18:33N 52°43' E 004°04'1616.3
2017-Mar-20 17:34N 52°32' E 004°23'9 8.6
2017-Mar-20 16:33N 52°28' E 004°35'0 0.0
2017-Mar-20 15:33N 52°28' E 004°35'0 0.0
2017-Mar-20 14:33N 52°28' E 004°35'0 0.0
2017-Mar-20 13:33N 52°28' E 004°35'  
Track history (hours):
 
Tides and Currents Weather Stations Pressure Air Temp Water Temp Dewpoint Dewpoint Depression Visibility Wind Speed Wind Dir Waves Ship Positions

King of Scandinavia

Ship's website: http://www.dfds.co.uk/DSW/EN/OnBoard/na/KING.htm

Last reported at 2017-Mar-30 12:32 UTC. Time now 2017-Mar-30 12:39 UTC.
Position N 52°28' E 004°35'.

Length 166 m; beam 27.6 m; draft 6.2 m.

Type: Ship. MMSI: 220449000.

Date/timePositionNaut miles runAvg speedWind from/ knotsBaromVisibWave heightAir tempDewpointWater temp
2017-Mar-30 12:32N 52°28' E 004°35'0 0.0
2017-Mar-30 11:32N 52°28' E 004°35'0 0.0
2017-Mar-30 10:32N 52°28' E 004°35'0 0.0
2017-Mar-30 09:32N 52°28' E 004°35'0 0.0
2017-Mar-30 08:32N 52°28' E 004°35'2 2.0
2017-Mar-30 07:34N 52°28' E 004°32'1817.6
2017-Mar-30 06:33N 52°39' E 004°09'16716.7
2017-Mar-29 20:33N 54°21' E 000°27'1717.2
2017-Mar-29 19:33N 54°30' E 000°02'1817.9
2017-Mar-29 18:33N 54°39' W 000°24'3818.4
2017-Mar-29 16:31N 54°59' W 001°19'5 4.7
2017-Mar-29 15:32N 54°59' W 001°27'0 0.0
2017-Mar-29 14:20N 54°59' W 001°27'0 0.0
2017-Mar-29 09:23N 54°59' W 001°27'0 0.0
2017-Mar-29 08:15N 54°59' W 001°27'3 4.9
2017-Mar-29 07:33N 55°01' W 001°22'3917.6
2017-Mar-29 05:19N 54°40' W 000°24'1113.9
2017-Mar-29 04:33N 54°34' W 000°09'1414.0
2017-Mar-29 03:33N 54°26' E 000°11'15216.6
2017-Mar-28 18:25N 52°56' E 003°38'1315.0
2017-Mar-28 17:31N 52°47' E 003°56'1515.4
2017-Mar-28 16:33N 52°38' E 004°15'1515.3
2017-Mar-28 15:34N 52°28' E 004°33'1 1.0
2017-Mar-28 14:32N 52°28' E 004°35'0 0.0
2017-Mar-28 13:32N 52°28' E 004°35'0 0.0
2017-Mar-28 12:32N 52°28' E 004°35'0 0.0
2017-Mar-28 11:32N 52°28' E 004°35'0 0.0
2017-Mar-28 10:32N 52°28' E 004°35'0 0.0
2017-Mar-28 09:32N 52°28' E 004°35'0 0.0
2017-Mar-28 08:32N 52°28' E 004°35'0 0.2
2017-Mar-28 07:33N 52°28' E 004°35'1211.7
2017-Mar-28 06:33N 52°35' E 004°19'1717.2
2017-Mar-28 05:33N 52°46' E 003°58'1919.0
2017-Mar-28 04:33N 52°58' E 003°34'2118.8
2017-Mar-28 03:25N 53°12' E 003°07'1817.8
2017-Mar-28 02:23N 53°24' E 002°43'8716.4
2017-Mar-27 21:05N 54°15' E 000°44'916.9
2017-Mar-27 20:33N 54°20' E 000°31'1717.1
2017-Mar-27 19:33N 54°29' E 000°06'1817.7
2017-Mar-27 18:33N 54°38' W 000°20'4018.2
2017-Mar-27 16:20N 54°59' W 001°20'4 5.5
2017-Mar-27 15:33N 54°59' W 001°27'0 0.0
2017-Mar-27 14:33N 54°59' W 001°27'0 0.0
2017-Mar-27 13:33N 54°59' W 001°27'0 0.0
2017-Mar-27 12:33N 54°59' W 001°27'0 0.0
2017-Mar-27 11:31N 54°59' W 001°27'0 0.0
2017-Mar-27 10:33N 54°59' W 001°27'0 0.0
2017-Mar-27 08:28N 54°59' W 001°27'4 4.1
2017-Mar-27 07:33N 55°01' W 001°21'1917.4
2017-Mar-27 06:27N 54°50' W 000°54'2017.6
2017-Mar-27 05:18N 54°38' W 000°24'1317.0
2017-Mar-27 04:33N 54°32' W 000°06'1716.9
2017-Mar-27 03:33N 54°23' E 000°19'11816.4
2017-Mar-26 20:22N 53°15' E 003°02'1614.8
2017-Mar-26 19:17N 53°05' E 003°22'1114.6
2017-Mar-26 18:33N 52°57' E 003°34'1514.9
2017-Mar-26 17:33N 52°48' E 003°54'1515.4
2017-Mar-26 16:33N 52°38' E 004°13'1515.4
2017-Mar-26 15:34N 52°28' E 004°33'1 1.4
2017-Mar-26 14:31N 52°28' E 004°35'0 0.0
2017-Mar-26 13:31N 52°28' E 004°35'0 0.0
2017-Mar-26 12:31N 52°28' E 004°35'0 0.0
2017-Mar-26 11:31N 52°28' E 004°35'0 0.0
2017-Mar-26 10:31N 52°28' E 004°35'0 0.0
2017-Mar-26 09:31N 52°28' E 004°35'0 0.0
2017-Mar-26 08:31N 52°28' E 004°35'9 9.5
2017-Mar-26 07:33N 52°32' E 004°22'1818.1
2017-Mar-26 06:33N 52°45' E 004°01'1918.5
2017-Mar-26 05:33N 52°57' E 003°37'2019.8
2017-Mar-26 04:33N 53°10' E 003°12'2019.6
2017-Mar-26 03:34N 53°22' E 002°47'2319.4
2017-Mar-26 02:24N 53°37' E 002°18'1517.5
2017-Mar-26 01:33N 53°46' E 001°59'1717.3
2017-Mar-26 00:34N 53°55' E 001°34'1717.1
2017-Mar-25 23:33N 54°05' E 001°10'1717.0
2017-Mar-25 22:33N 54°14' E 000°46'1717.0
2017-Mar-25 21:34N 54°23' E 000°21'1717.1
2017-Mar-25 20:34N 54°32' W 000°04'3617.1
2017-Mar-25 18:28N 54°51' W 000°57'1617.5
2017-Mar-25 17:33N 54°60' W 001°20'4 4.2
2017-Mar-25 16:33N 54°59' W 001°27'0 0.0
2017-Mar-25 14:19N 54°59' W 001°27'0 0.0
2017-Mar-25 09:19N 54°59' W 001°27'3 4.0
2017-Mar-25 08:34N 55°01' W 001°23'1515.1
2017-Mar-25 07:34N 54°53' W 000°60'2317.5
2017-Mar-25 06:15N 54°41' W 000°27'1218.2
2017-Mar-25 05:34N 54°34' W 000°08'1817.7
2017-Mar-25 04:34N 54°24' E 000°17'1717.1
2017-Mar-25 03:33N 54°15' E 000°42'1717.0
2017-Mar-25 02:33N 54°06' E 001°06'8216.3
2017-Mar-24 21:33N 53°17' E 002°57'3315.4
2017-Mar-24 19:25N 52°56' E 003°39'1315.1
2017-Mar-24 18:34N 52°48' E 003°56'1514.5
2017-Mar-24 17:33N 52°38' E 004°13'1514.7
2017-Mar-24 16:34N 52°28' E 004°31'2 2.4
2017-Mar-24 15:33N 52°28' E 004°35'0 0.0
2017-Mar-24 14:30N 52°28' E 004°35'0 0.0
2017-Mar-24 13:33N 52°28' E 004°35'0 0.0
2017-Mar-24 12:33N 52°28' E 004°35'0 0.0
2017-Mar-24 11:33N 52°28' E 004°35'0 0.0
2017-Mar-24 10:33N 52°28' E 004°35'0 0.0
2017-Mar-24 09:33N 52°28' E 004°35'0 0.0
2017-Mar-24 08:33N 52°28' E 004°35'1111.1
2017-Mar-24 07:34N 52°34' E 004°20'1716.5
2017-Mar-24 06:33N 52°44' E 003°59'15518.2
2017-Mar-23 22:04N 54°18' E 000°31'918.2
2017-Mar-23 21:34N 54°23' E 000°18'1818.1
2017-Mar-23 20:34N 54°33' W 000°08'4816.2
2017-Mar-23 17:34N 54°59' W 001°19'5 4.6
2017-Mar-23 16:33N 54°59' W 001°27'0 0.0
2017-Mar-23 15:34N 54°59' W 001°27'0 0.0
2017-Mar-23 14:33N 54°59' W 001°27'0 0.0
2017-Mar-23 13:29N 54°59' W 001°27'0 0.0
2017-Mar-23 12:33N 54°59' W 001°27'0 0.0
2017-Mar-23 11:32N 54°59' W 001°27'0 0.0
2017-Mar-23 10:34N 54°59' W 001°27'0 0.0
2017-Mar-23 09:33N 54°59' W 001°27'5 5.1
2017-Mar-23 08:34N 54°60' W 001°18'3514.8
2017-Mar-23 06:11N 54°41' W 000°26'1117.7
2017-Mar-23 05:33N 54°34' W 000°11'1818.0
2017-Mar-23 04:34N 54°25' E 000°15'16716.3
2017-Mar-22 18:18N 52°45' E 004°01'1115.1
2017-Mar-22 17:34N 52°37' E 004°14'1514.9
2017-Mar-22 16:33N 52°28' E 004°33'1 1.1
2017-Mar-22 15:31N 52°28' E 004°35'0 0.0
2017-Mar-22 14:31N 52°28' E 004°35'0 0.0
2017-Mar-22 13:31N 52°28' E 004°35'0 0.0
2017-Mar-22 12:31N 52°28' E 004°35'0 0.0
2017-Mar-22 11:31N 52°28' E 004°35'0 0.0
2017-Mar-22 10:31N 52°28' E 004°35'0 0.0
2017-Mar-22 09:31N 52°28' E 004°35'0 0.0
2017-Mar-22 08:33N 52°28' E 004°35'1111.1
2017-Mar-22 07:33N 52°34' E 004°20'1414.4
2017-Mar-22 06:33N 52°44' E 004°03'15917.7
2017-Mar-21 21:33N 54°19' E 000°29'1818.3
2017-Mar-21 20:33N 54°29' E 000°03'1818.3
2017-Mar-21 19:33N 54°39' W 000°24'3818.2
2017-Mar-21 17:29N 54°59' W 001°19'5 4.8
2017-Mar-21 16:32N 54°59' W 001°27'0 0.0
2017-Mar-21 15:14N 54°59' W 001°27'0 0.0
2017-Mar-21 14:31N 54°59' W 001°27'0 0.0
2017-Mar-21 13:33N 54°59' W 001°27'0 0.0
2017-Mar-21 10:17N 54°59' W 001°27'0 0.0
2017-Mar-21 09:28N 54°59' W 001°27'5 5.7
2017-Mar-21 08:33N 54°60' W 001°18'4016.9
2017-Mar-21 06:13N 54°38' W 000°20'1116.4
2017-Mar-21 05:33N 54°32' W 000°04'1716.7
2017-Mar-21 04:34N 54°24' E 000°20'14916.6
2017-Mar-20 19:33N 52°55' E 003°42'1717.1
2017-Mar-20 18:33N 52°43' E 004°04'1616.3
2017-Mar-20 17:34N 52°32' E 004°23'9 8.6
2017-Mar-20 16:33N 52°28' E 004°35'0 0.0
2017-Mar-20 15:33N 52°28' E 004°35'0 0.0
2017-Mar-20 14:33N 52°28' E 004°35'0 0.0
2017-Mar-20 13:33N 52°28' E 004°35'  

Dump ship's entire track history